Time;durP1;ratioP1;P1;durP2;ratioP2;P2;SDS_P1;SDS_P2;PMS_P1;PMS_P2;Temp;Humidity;BMP_temperature;BMP_pressure;BME280_temperature;BME280_humidity;BME280_pressure;Samples;Min_cycle;Max_cycle;Signal;HPM_P1;HPM_P2
2022/04/23 00:03:10;;;;;;;13.25;8.43;;;;;;;;;;4888426;29;20044;-96
2022/04/23 00:09:14;;;;;;;14.27;9.57;;;;;;;;;;4944735;29;20487;-96
2022/04/23 00:12:16;;;;;;;18.02;9.38;;;;;;;;;;4965781;28;20023;-96
2022/04/23 00:16:00;;;;;;;13.13;8.68;;;;;;;;;;4967656;29;20031;-96
2022/04/23 00:18:30;;;;;;;12.48;8.57;;;;;;;;;;4963026;28;20075;-96
2022/04/23 00:21:34;;;;;;;;;;;;;;;;;;;;;
2022/04/23 00:34:06;;;;;;;15.80;9.68;;;;;;;;;;4838330;29;20133;-96
2022/04/23 00:37:38;;;;;;;18.13;8.70;;;;;;;;;;4834385;29;20133;-96
2022/04/23 00:48:39;;;;;;;;;;;;;;;;;;;;;
2022/04/23 00:54:38;;;;;;;15.70;9.55;;;;;;;;;;4960886;29;20023;-96
2022/04/23 01:06:48;;;;;;;;;;;;;;;;;;;;;
2022/04/23 01:10:12;;;;;;;16.17;10.27;;;;;;;;;;4813824;29;20047;-96
2022/04/23 01:13:25;;;;;;;;;;;;;;;;;;;;;
2022/04/23 01:16:08;;;;;;;15.73;9.93;;;;;;;;;;4880522;29;20017;-96
2022/04/23 01:19:04;;;;;;;20.35;10.40;;;;;;;;;;4908969;29;20037;-96
2022/04/23 01:22:02;;;;;;;18.02;9.95;;;;;;;;;;4858322;29;20050;-93
2022/04/23 01:24:43;;;;;;;14.68;9.68;;;;;;;;;;4859506;29;20033;-96
2022/04/23 01:34:21;;;;;;;;;;;;;;;;;;;;;
2022/04/23 01:49:51;;;;;;;17.70;10.60;;;;;;;;;;4926585;23;20050;-95
2022/04/23 01:59:16;;;;;;;;;;;;;;;;;;;;;
2022/04/23 02:02:22;;;;;;;16.95;10.00;;;;;;;;;;4920402;29;20031;-96
2022/04/23 02:08:21;;;;;;;15.25;9.90;;;;;;;;;;4968093;29;20115;-96
2022/04/23 02:11:10;;;;;;;;;;;;;;;;;;;;;
2022/04/23 02:14:13;;;;;;;;;;;;;;;;;;;;;
2022/04/23 02:16:55;;;;;;;15.27;9.75;;;;;;;;;;4963725;28;20114;-96
2022/04/23 02:19:44;;;;;;;;;;;;;;;;;;;;;
2022/04/23 02:22:13;;;;;;;13.48;9.57;;;;;;;;;;4963844;29;20114;-96
2022/04/23 02:24:52;;;;;;;;;;;;;;;;;;;;;
2022/04/23 02:30:23;;;;;;;14.00;9.55;;;;;;;;;;4951393;28;20380;-96
2022/04/23 02:33:07;;;;;;;14.32;9.77;;;;;;;;;;4944769;29;20031;-96
2022/04/23 02:35:46;;;;;;;;;;;;;;;;;;;;;
2022/04/23 02:38:27;;;;;;;22.17;13.00;;;;;;;;;;4963935;28;20192;-96
2022/04/23 02:41:05;;;;;;;;;;;;;;;;;;;;;
2022/04/23 02:44:35;;;;;;;;;;;;;;;;;;;;;
2022/04/23 02:53:53;;;;;;;16.98;10.55;;;;;;;;;;4883401;29;20418;-96
2022/04/23 02:56:55;;;;;;;;;;;;;;;;;;;;;
2022/04/23 02:59:58;;;;;;;;;;;;;;;;;;;;;
2022/04/23 03:02:52;;;;;;;16.63;11.25;;;;;;;;;;4864703;29;20447;-96
2022/04/23 03:06:18;;;;;;;;;;;;;;;;;;;;;
2022/04/23 03:09:12;;;;;;;;;;;;;;;;;;;;;
2022/04/23 03:12:27;;;;;;;;;;;;;;;;;;;;;
2022/04/23 03:18:56;;;;;;;;;;;;;;;;;;;;;
2022/04/23 03:22:13;;;;;;;;;;;;;;;;;;;;;
2022/04/23 03:25:20;;;;;;;;;;;;;;;;;;;;;
2022/04/23 03:28:36;;;;;;;;;;;;;;;;;;;;;
2022/04/23 03:31:19;;;;;;;;;;;;;;;;;;4757433;30;20032;-96
2022/04/23 03:34:15;;;;;;;16.05;10.68;;;;;;;;;;4829979;29;19916;-96
2022/04/23 03:41:16;;;;;;;;;;;;;;;;;;;;;
2022/04/23 03:43:55;;;;;;;15.05;9.32;;;;;;;;;;4821486;29;20034;-96
2022/04/23 03:47:23;;;;;;;13.55;9.32;;;;;;;;;;4917546;29;20063;-96
2022/04/23 03:50:21;;;;;;;;;;;;;;;;;;;;;
2022/04/23 03:53:29;;;;;;;;;;;;;;;;;;;;;
2022/04/23 03:56:22;;;;;;;12.05;8.85;;;;;;;;;;4884990;29;20128;-96
2022/04/23 03:59:23;;;;;;;13.80;8.77;;;;;;;;;;4882115;29;20033;-96
2022/04/23 04:06:00;;;;;;;15.52;9.25;;;;;;;;;;4843476;29;20110;-96
2022/04/23 04:12:16;;;;;;;;;;;;;;;;;;;;;
2022/04/23 04:15:01;;;;;;;13.02;8.95;;;;;;;;;;4827760;29;20042;-92
2022/04/23 04:17:54;;;;;;;12.85;8.65;;;;;;;;;;4829590;29;20054;-96
2022/04/23 04:20:59;;;;;;;;;;;;;;;;;;;;;
2022/04/23 04:24:01;;;;;;;13.57;8.95;;;;;;;;;;4829428;29;20187;-96
2022/04/23 04:29:55;;;;;;;;;;;;;;;;;;;;;
2022/04/23 04:33:21;;;;;;;;;;;;;;;;;;;;;
2022/04/23 04:36:11;;;;;;;11.48;8.18;;;;;;;;;;4877136;29;20037;-96
2022/04/23 04:39:12;;;;;;;;;;;;;;;;;;;;;
2022/04/23 04:45:28;;;;;;;14.43;8.23;;;;;;;;;;4806225;29;20088;-96
2022/04/23 04:47:54;;;;;;;13.95;8.52;;;;;;;;;;4813918;29;20055;-93
2022/04/23 04:53:01;;;;;;;15.15;8.40;;;;;;;;;;4960179;28;20035;-90
2022/04/23 04:55:51;;;;;;;13.23;8.38;;;;;;;;;;4939609;29;20036;-96
2022/04/23 04:58:17;;;;;;;13.68;8.85;;;;;;;;;;4933881;29;20059;-94
2022/04/23 05:28:54;;;;;;;20.63;10.90;;;;;;;;;;4939620;29;20131;-95
2022/04/23 05:31:31;;;;;;;15.45;10.18;;;;;;;;;;4935768;29;20036;-96
2022/04/23 05:47:58;;;;;;;21.40;12.23;;;;;;;;;;4970095;28;20058;-96
2022/04/23 06:03:12;;;;;;;25.00;14.38;;;;;;;;;;4913677;29;20212;-92
2022/04/23 06:08:35;;;;;;;25.38;13.48;;;;;;;;;;4949215;29;20060;-96
2022/04/23 06:11:01;;;;;;;29.37;14.03;;;;;;;;;;4932809;29;20011;-96
2022/04/23 06:13:33;;;;;;;29.30;14.32;;;;;;;;;;4927566;29;20028;-95
2022/04/23 06:21:19;;;;;;;23.15;10.95;;;;;;;;;;5622966;23;20055;-93
2022/04/23 06:33:23;;;;;;;23.83;11.82;;;;;;;;;;4891509;29;20070;-90
2022/04/23 06:42:20;;;;;;;23.30;10.60;;;;;;;;;;4841850;29;20133;-96
2022/04/23 06:44:49;;;;;;;23.95;11.27;;;;;;;;;;4873762;29;20510;-96
2022/04/23 06:47:19;;;;;;;24.40;10.38;;;;;;;;;;5095142;23;20035;-92
2022/04/23 06:49:51;;;;;;;22.52;10.55;;;;;;;;;;5245627;23;20039;-94
2022/04/23 06:55:13;;;;;;;20.15;10.15;;;;;;;;;;4953465;23;20090;-92
2022/04/23 06:57:44;;;;;;;18.27;9.65;;;;;;;;;;5390078;23;20047;-92
2022/04/23 07:06:34;;;;;;;24.75;9.77;;;;;;;;;;5143677;23;20051;-96
2022/04/23 07:21:56;;;;;;;18.23;8.70;;;;;;;;;;4942517;29;20059;-95
2022/04/23 07:24:22;;;;;;;19.60;8.85;;;;;;;;;;4937707;29;20055;-95
2022/04/23 07:38:14;;;;;;;19.80;8.73;;;;;;;;;;4964722;28;20054;-94
2022/04/23 07:40:42;;;;;;;18.00;8.38;;;;;;;;;;5602693;23;20254;31
2022/04/23 07:43:10;;;;;;;19.20;9.27;;;;;;;;;;4974934;23;20052;-91
2022/04/23 07:46:27;;;;;;;17.45;9.93;;;;;;;;;;4920667;29;20482;-96
2022/04/23 07:54:48;;;;;;;15.07;8.15;;;;;;;;;;5870919;23;20121;-95
2022/04/23 07:57:35;;;;;;;16.30;8.07;;;;;;;;;;5115886;23;20039;-92
2022/04/23 08:00:31;;;;;;;13.10;7.88;;;;;;;;;;5146823;23;20351;-90
2022/04/23 08:31:59;;;;;;;15.48;7.90;;;;;;;;;;4965241;29;20014;-96
2022/04/23 08:34:30;;;;;;;19.20;10.00;;;;;;;;;;4946654;29;20039;-96
2022/04/23 08:37:15;;;;;;;14.43;7.18;;;;;;;;;;4946345;29;20038;-96
2022/04/23 08:42:46;;;;;;;16.77;8.82;;;;;;;;;;5009877;23;20073;-94
2022/04/23 09:29:02;;;;;;;21.92;12.30;;;;;;;;;;5432051;23;20026;-94
2022/04/23 11:01:16;;;;;;;14.48;8.15;;;;;;;;;;4973191;29;20472;-92
2022/04/23 11:12:59;;;;;;;15.68;9.05;;;;;;;;;;4943872;29;20079;-93
2022/04/23 11:15:44;;;;;;;14.75;8.65;;;;;;;;;;4945144;29;20031;-94
2022/04/23 11:24:22;;;;;;;15.27;8.15;;;;;;;;;;5069343;23;20568;-93
2022/04/23 11:26:55;;;;;;;14.27;7.93;;;;;;;;;;4922790;29;20063;-95
2022/04/23 11:29:24;;;;;;;16.25;9.05;;;;;;;;;;4925607;29;20074;-92
2022/04/23 11:31:56;;;;;;;14.93;8.35;;;;;;;;;;4926154;29;20028;-93
2022/04/23 11:34:40;;;;;;;;;;;;;;;;;;;;;
2022/04/23 11:37:06;;;;;;;16.20;9.77;;;;;;;;;;4943162;28;20548;-93
2022/04/23 11:39:33;;;;;;;12.88;8.25;;;;;;;;;;4924760;29;20048;-94
2022/04/23 11:42:31;;;;;;;;;;;;;;;;;;;;;
2022/04/23 11:45:05;;;;;;;;;;;;;;;;;;4949709;28;20118;-96
2022/04/23 11:47:56;;;;;;;14.25;7.93;;;;;;;;;;4941049;28;19938;-93
2022/04/23 11:56:13;;;;;;;15.57;8.95;;;;;;;;;;5540314;23;20177;-96
2022/04/23 11:58:39;;;;;;;15.35;8.73;;;;;;;;;;4951822;29;20093;-93
2022/04/23 12:01:08;;;;;;;14.60;8.35;;;;;;;;;;4944681;29;20027;-96
2022/04/23 12:03:58;;;;;;;14.80;8.52;;;;;;;;;;4960641;29;20128;-96
2022/04/23 12:06:24;;;;;;;14.02;8.60;;;;;;;;;;4945802;29;20027;-94
2022/04/23 12:08:51;;;;;;;14.35;8.18;;;;;;;;;;4945137;29;20090;-94
2022/04/23 12:11:26;;;;;;;15.75;8.75;;;;;;;;;;4944142;29;20395;-94
2022/04/23 12:13:53;;;;;;;19.38;8.00;;;;;;;;;;4943776;29;20082;-92
2022/04/23 12:16:37;;;;;;;15.05;8.55;;;;;;;;;;4943441;29;20035;-91
2022/04/23 12:19:17;;;;;;;13.25;7.18;;;;;;;;;;4943767;29;20035;-95
2022/04/23 12:21:59;;;;;;;15.55;7.53;;;;;;;;;;4943245;29;20369;-93
2022/04/23 12:24:33;;;;;;;14.13;7.63;;;;;;;;;;4943130;29;20027;-91
2022/04/23 12:27:08;;;;;;;13.93;8.00;;;;;;;;;;4942960;29;20392;-92
2022/04/23 12:41:14;;;;;;;12.55;7.05;;;;;;;;;;4959925;29;20043;-94
2022/04/23 12:43:52;;;;;;;12.93;7.15;;;;;;;;;;4944729;29;20023;-92
2022/04/23 12:46:21;;;;;;;12.05;5.30;;;;;;;;;;4943050;29;20031;-90
2022/04/23 12:49:03;;;;;;;11.88;6.50;;;;;;;;;;4942884;29;20554;-92
2022/04/23 12:51:29;;;;;;;10.82;6.75;;;;;;;;;;4941663;29;20035;-91
2022/04/23 12:56:21;;;;;;;10.43;6.03;;;;;;;;;;5018385;23;20105;-91
2022/04/23 12:58:49;;;;;;;11.35;6.78;;;;;;;;;;4942223;29;20035;-91
2022/04/23 13:01:16;;;;;;;12.13;6.80;;;;;;;;;;4942529;29;20066;-93
2022/04/23 13:03:45;;;;;;;11.80;6.93;;;;;;;;;;4943739;29;20118;-92
2022/04/23 13:08:56;;;;;;;12.23;6.57;;;;;;;;;;4965840;29;20133;-94
2022/04/23 13:11:30;;;;;;;14.48;7.47;;;;;;;;;;4941953;29;20027;-96
2022/04/23 13:14:00;;;;;;;13.15;7.65;;;;;;;;;;4942984;29;20109;-92
2022/04/23 13:16:34;;;;;;;14.60;7.53;;;;;;;;;;4943345;29;20075;-91
2022/04/23 13:19:04;;;;;;;13.85;8.02;;;;;;;;;;4941841;29;20031;-91
2022/04/23 13:21:37;;;;;;;13.90;7.97;;;;;;;;;;4942425;29;20055;-92
2022/04/23 13:24:06;;;;;;;13.50;7.13;;;;;;;;;;4941917;29;20092;-94
2022/04/23 13:26:44;;;;;;;13.30;7.13;;;;;;;;;;4927171;29;20047;-94
2022/04/23 13:29:10;;;;;;;14.73;7.85;;;;;;;;;;4942373;29;20062;-91
2022/04/23 13:31:39;;;;;;;11.20;7.28;;;;;;;;;;4958766;29;20035;-94
2022/04/23 13:34:11;;;;;;;11.25;6.97;;;;;;;;;;4942083;29;20028;-95
2022/04/23 13:37:02;;;;;;;10.73;6.97;;;;;;;;;;4941582;29;20031;-96
2022/04/23 13:39:32;;;;;;;20.65;7.55;;;;;;;;;;4941746;29;20455;-92
2022/04/23 13:42:01;;;;;;;15.52;8.05;;;;;;;;;;4941641;29;20465;-92
2022/04/23 13:44:28;;;;;;;13.63;7.53;;;;;;;;;;4942177;29;20031;-91
2022/04/23 13:46:55;;;;;;;14.43;8.90;;;;;;;;;;4962892;29;20059;-92
2022/04/23 13:49:21;;;;;;;15.50;8.88;;;;;;;;;;4944098;29;20027;-91
2022/04/23 13:51:48;;;;;;;15.68;9.32;;;;;;;;;;4948006;29;20027;-91
2022/04/23 13:54:14;;;;;;;14.27;7.88;;;;;;;;;;4941984;29;20031;-83
2022/04/23 13:56:40;;;;;;;18.27;10.32;;;;;;;;;;4920899;29;20044;-86
2022/04/23 13:59:10;;;;;;;18.15;9.70;;;;;;;;;;4922065;29;20534;-94
2022/04/23 14:01:37;;;;;;;21.55;10.55;;;;;;;;;;4923479;29;20031;-95
2022/04/23 14:12:17;;;;;;;20.27;12.60;;;;;;;;;;4944330;29;20074;-93
2022/04/23 14:14:43;;;;;;;18.80;11.65;;;;;;;;;;4922165;29;20039;-95
2022/04/23 14:17:09;;;;;;;22.77;13.07;;;;;;;;;;4921967;29;20028;-95
2022/04/23 14:19:36;;;;;;;18.58;11.73;;;;;;;;;;4924300;29;20047;-92
2022/04/23 14:22:03;;;;;;;21.25;12.57;;;;;;;;;;4921968;29;20039;-93
2022/04/23 14:24:31;;;;;;;20.92;12.45;;;;;;;;;;4922205;29;20027;-94
2022/04/23 14:26:57;;;;;;;19.50;10.40;;;;;;;;;;4922270;29;20484;-94
2022/04/23 14:29:24;;;;;;;19.58;11.85;;;;;;;;;;4922768;29;20039;-96
2022/04/23 14:31:50;;;;;;;17.95;10.57;;;;;;;;;;4922275;29;20031;-94
2022/04/23 14:34:17;;;;;;;22.92;12.68;;;;;;;;;;4921424;29;20055;-93
2022/04/23 14:36:43;;;;;;;19.77;11.43;;;;;;;;;;4921793;29;20488;-93
2022/04/23 14:39:09;;;;;;;20.08;10.90;;;;;;;;;;4922455;29;20067;-94
2022/04/23 14:41:35;;;;;;;21.38;12.70;;;;;;;;;;4921726;29;20476;-95
2022/04/23 14:44:02;;;;;;;26.70;15.93;;;;;;;;;;4922524;29;20042;-95
2022/04/23 14:46:28;;;;;;;21.00;12.05;;;;;;;;;;4921131;29;20036;-95
2022/04/23 14:48:55;;;;;;;18.73;12.05;;;;;;;;;;4922248;29;20042;-95
2022/04/23 14:54:06;;;;;;;22.17;13.07;;;;;;;;;;4938971;29;20035;-93
2022/04/23 14:56:33;;;;;;;21.67;13.00;;;;;;;;;;4921373;29;20027;-93
2022/04/23 14:59:01;;;;;;;19.40;13.35;;;;;;;;;;4922246;29;20032;-92
2022/04/23 15:01:27;;;;;;;21.40;13.05;;;;;;;;;;4921441;29;20024;-93
2022/04/23 15:04:07;;;;;;;19.67;11.90;;;;;;;;;;4922450;29;20028;-94
2022/04/23 15:06:33;;;;;;;23.65;13.27;;;;;;;;;;4921595;29;20075;-93
2022/04/23 15:09:00;;;;;;;22.40;11.88;;;;;;;;;;4921449;29;20047;-94
2022/04/23 15:11:26;;;;;;;20.73;11.45;;;;;;;;;;4921463;29;20481;-94
2022/04/23 15:13:55;;;;;;;19.27;11.43;;;;;;;;;;4906271;29;20032;-94
2022/04/23 15:16:21;;;;;;;17.35;10.90;;;;;;;;;;4925241;29;20035;-94
2022/04/23 15:18:47;;;;;;;21.13;11.82;;;;;;;;;;4920554;29;20486;-93
2022/04/23 15:21:14;;;;;;;20.33;11.90;;;;;;;;;;4921426;29;20457;-94
2022/04/23 15:23:40;;;;;;;24.88;12.25;;;;;;;;;;4921362;29;20085;-93
2022/04/23 15:26:06;;;;;;;18.13;11.50;;;;;;;;;;4920930;29;20087;-91
2022/04/23 15:28:33;;;;;;;18.20;10.93;;;;;;;;;;4925512;29;20472;-90
2022/04/23 15:31:00;;;;;;;16.17;10.00;;;;;;;;;;4923433;29;20098;-92
2022/04/23 15:33:26;;;;;;;27.13;10.70;;;;;;;;;;4923948;29;20354;-94
2022/04/23 15:35:53;;;;;;;21.38;11.10;;;;;;;;;;4921548;29;20063;-92
2022/04/23 15:38:19;;;;;;;19.83;10.95;;;;;;;;;;4921420;29;20042;-92
2022/04/23 15:40:45;;;;;;;17.75;10.77;;;;;;;;;;4921745;29;20026;-92
2022/04/23 15:43:12;;;;;;;16.90;9.60;;;;;;;;;;4921724;29;20026;-93
2022/04/23 15:45:38;;;;;;;16.85;8.10;;;;;;;;;;4919556;29;20473;-92
2022/04/23 15:48:07;;;;;;;20.58;10.27;;;;;;;;;;4920584;29;20040;-92
2022/04/23 15:50:33;;;;;;;15.27;9.43;;;;;;;;;;4922131;29;20091;-92
2022/04/23 15:53:00;;;;;;;15.50;9.30;;;;;;;;;;4923634;29;20536;-91
2022/04/23 15:55:26;;;;;;;21.42;12.57;;;;;;;;;;4922698;29;20054;-92
2022/04/23 15:57:52;;;;;;;22.45;15.20;;;;;;;;;;4921896;29;20126;-92
2022/04/23 16:00:19;;;;;;;21.48;12.95;;;;;;;;;;4922037;29;20028;-93
2022/04/23 16:02:46;;;;;;;24.58;11.02;;;;;;;;;;4920819;29;20038;-92
2022/04/23 16:05:12;;;;;;;22.60;13.27;;;;;;;;;;4921623;29;20032;-92
2022/04/23 16:07:40;;;;;;;23.10;13.13;;;;;;;;;;4920751;29;20404;-94
2022/04/23 16:10:06;;;;;;;20.70;12.45;;;;;;;;;;4921013;29;20031;-94
2022/04/23 16:12:35;;;;;;;22.25;13.60;;;;;;;;;;4920843;29;20063;-91
2022/04/23 16:15:01;;;;;;;20.50;12.32;;;;;;;;;;4938962;29;20035;-94
2022/04/23 16:17:27;;;;;;;24.48;12.90;;;;;;;;;;4922603;29;20031;-93
2022/04/23 16:19:54;;;;;;;22.85;12.75;;;;;;;;;;4925910;29;20023;-93
2022/04/23 16:22:20;;;;;;;19.35;12.30;;;;;;;;;;4940313;29;20034;-94
2022/04/23 16:24:46;;;;;;;25.83;13.05;;;;;;;;;;4940636;29;20035;-91
2022/04/23 16:27:12;;;;;;;21.30;12.68;;;;;;;;;;4942530;29;20031;-92
2022/04/23 16:29:41;;;;;;;23.40;13.93;;;;;;;;;;4943730;29;20031;-93
2022/04/23 16:32:08;;;;;;;20.42;12.60;;;;;;;;;;4943292;29;20491;-92
2022/04/23 16:34:36;;;;;;;25.00;13.38;;;;;;;;;;4943583;29;20469;-93
2022/04/23 16:48:07;;;;;;;21.40;14.07;;;;;;;;;;4970293;29;20054;-92
2022/04/23 16:50:37;;;;;;;22.55;13.25;;;;;;;;;;4949428;29;20082;-91
2022/04/23 16:53:04;;;;;;;23.17;13.80;;;;;;;;;;4944123;29;20543;-96
2022/04/23 16:55:30;;;;;;;26.27;13.70;;;;;;;;;;4946754;29;20047;-95
2022/04/23 16:57:57;;;;;;;25.90;13.88;;;;;;;;;;4945295;29;20059;-93
2022/04/23 17:00:24;;;;;;;24.48;14.38;;;;;;;;;;4943859;29;20114;-94
2022/04/23 17:03:10;;;;;;;25.48;14.77;;;;;;;;;;4943149;29;20035;-95
2022/04/23 17:05:42;;;;;;;25.00;15.13;;;;;;;;;;4923787;29;20043;-95
2022/04/23 17:08:08;;;;;;;26.05;15.77;;;;;;;;;;4924191;29;20036;-92
2022/04/23 17:10:35;;;;;;;25.83;14.93;;;;;;;;;;4924684;29;20024;-91
2022/04/23 17:13:01;;;;;;;31.50;15.15;;;;;;;;;;4941172;29;20032;-95
2022/04/23 17:15:36;;;;;;;24.77;15.30;;;;;;;;;;4944374;29;20023;-91
2022/04/23 17:18:12;;;;;;;28.25;15.70;;;;;;;;;;4945943;29;20085;-93
2022/04/23 17:20:48;;;;;;;26.73;15.73;;;;;;;;;;4922149;29;20131;-94
2022/04/23 17:23:17;;;;;;;28.67;15.20;;;;;;;;;;4942962;29;20078;-93
2022/04/23 17:25:43;;;;;;;27.15;15.93;;;;;;;;;;4942142;29;20542;-92
2022/04/23 17:28:09;;;;;;;27.90;15.85;;;;;;;;;;4942067;29;20039;-91
2022/04/23 17:30:35;;;;;;;26.92;15.90;;;;;;;;;;4942216;29;20166;-92
2022/04/23 17:33:02;;;;;;;28.50;15.90;;;;;;;;;;4942811;29;20031;-92
2022/04/23 17:48:47;;;;;;;25.17;14.63;;;;;;;;;;4920209;28;20506;-94
2022/04/23 17:51:14;;;;;;;23.48;14.88;;;;;;;;;;4904279;29;20024;-94
2022/04/23 17:53:40;;;;;;;29.17;17.20;;;;;;;;;;4904043;29;20449;-94
2022/04/23 17:56:06;;;;;;;29.48;16.10;;;;;;;;;;4906533;29;20070;-94
2022/04/23 17:58:33;;;;;;;25.85;15.55;;;;;;;;;;4903984;29;20032;-91
2022/04/23 18:13:44;;;;;;;26.63;16.52;;;;;;;;;;4925159;29;20097;-96
2022/04/23 18:15:52;;;;;;;28.27;16.58;;;;;;;;;;4922343;29;20084;-92
2022/04/23 18:18:19;;;;;;;30.67;16.40;;;;;;;;;;4905130;29;20090;-93
2022/04/23 18:20:46;;;;;;;28.35;15.55;;;;;;;;;;4905033;29;20024;-93
2022/04/23 18:23:12;;;;;;;31.00;16.30;;;;;;;;;;4896996;29;20040;-92
2022/04/23 18:25:38;;;;;;;30.80;17.25;;;;;;;;;;4887143;29;20036;-95
2022/04/23 18:28:05;;;;;;;30.27;17.73;;;;;;;;;;4890557;29;20045;-94
2022/04/23 18:31:13;;;;;;;30.55;17.55;;;;;;;;;;4898755;29;20028;-95
2022/04/23 18:33:52;;;;;;;36.00;21.38;;;;;;;;;;4845099;29;20041;-95
2022/04/23 18:36:37;;;;;;;41.33;23.13;;;;;;;;;;4902827;29;20061;-96
2022/04/23 18:39:04;;;;;;;46.83;23.50;;;;;;;;;;4885479;29;20039;-94
2022/04/23 18:41:30;;;;;;;46.63;26.00;;;;;;;;;;4894065;29;20521;-94
2022/04/23 18:43:56;;;;;;;43.30;24.63;;;;;;;;;;4884788;29;20040;-94
2022/04/23 18:46:44;;;;;;;;;;;;;;;;;;;;;
2022/04/23 18:49:10;;;;;;;42.28;23.90;;;;;;;;;;4909019;29;20048;-91
2022/04/23 18:51:38;;;;;;;41.30;23.08;;;;;;;;;;4900345;29;20035;-92
2022/04/23 18:54:05;;;;;;;37.80;20.27;;;;;;;;;;4883647;29;20032;-95
2022/04/23 18:56:31;;;;;;;36.67;20.40;;;;;;;;;;4883035;29;20500;-94
2022/04/23 18:58:57;;;;;;;36.42;21.10;;;;;;;;;;4885315;29;20105;-93
2022/04/23 19:01:24;;;;;;;39.10;22.17;;;;;;;;;;4884215;29;20119;-91
2022/04/23 19:03:50;;;;;;;36.65;20.15;;;;;;;;;;4882837;29;20065;-94
2022/04/23 19:06:17;;;;;;;31.35;18.13;;;;;;;;;;4881993;29;20029;-91
2022/04/23 19:08:43;;;;;;;34.97;18.42;;;;;;;;;;4894662;29;20134;-90
2022/04/23 19:11:10;;;;;;;35.22;20.50;;;;;;;;;;4889801;29;20029;-91
2022/04/23 19:13:39;;;;;;;31.70;19.58;;;;;;;;;;4883625;29;20029;-93
2022/04/23 19:16:09;;;;;;;30.70;18.15;;;;;;;;;;4883636;29;20025;-92
2022/04/23 19:18:35;;;;;;;33.35;19.00;;;;;;;;;;4885456;29;20069;-93
2022/04/23 19:29:16;;;;;;;33.35;20.15;;;;;;;;;;4901830;29;20083;-92
2022/04/23 19:31:42;;;;;;;38.13;21.90;;;;;;;;;;4883897;29;20145;-90
2022/04/23 19:34:08;;;;;;;44.63;24.80;;;;;;;;;;4883026;29;20043;-93
2022/04/23 19:36:35;;;;;;;43.17;25.17;;;;;;;;;;4883342;29;20048;-94
2022/04/23 19:39:05;;;;;;;38.00;23.90;;;;;;;;;;4882453;29;20090;-93
2022/04/23 19:41:31;;;;;;;39.42;24.17;;;;;;;;;;4883155;29;20207;-92
2022/04/23 19:43:57;;;;;;;36.42;21.75;;;;;;;;;;4884460;29;20039;-95
2022/04/23 19:46:23;;;;;;;37.10;20.38;;;;;;;;;;4884072;29;20033;-92
2022/04/23 19:48:50;;;;;;;37.17;21.38;;;;;;;;;;4883495;29;20072;-93
2022/04/23 19:51:16;;;;;;;39.13;23.30;;;;;;;;;;4883119;29;20057;-95
2022/04/23 19:53:43;;;;;;;40.38;22.73;;;;;;;;;;4883721;29;20052;-93
2022/04/23 19:56:09;;;;;;;41.63;22.70;;;;;;;;;;4884191;29;20132;-91
2022/04/23 19:58:40;;;;;;;38.70;22.15;;;;;;;;;;4885689;29;20052;-91
2022/04/23 20:01:07;;;;;;;38.30;23.23;;;;;;;;;;4892904;29;20120;-92
2022/04/23 20:03:33;;;;;;;39.80;24.70;;;;;;;;;;4891029;29;20032;-92
2022/04/23 20:06:00;;;;;;;44.83;24.55;;;;;;;;;;4888141;29;20467;-94
2022/04/23 20:08:26;;;;;;;45.53;25.05;;;;;;;;;;4886470;29;20056;-92
2022/04/23 20:10:52;;;;;;;42.10;24.30;;;;;;;;;;4885928;29;20032;-92
2022/04/23 20:13:19;;;;;;;39.70;22.92;;;;;;;;;;4886391;29;20032;-87
2022/04/23 20:15:45;;;;;;;42.65;24.45;;;;;;;;;;4886864;29;20029;-94
2022/04/23 20:18:11;;;;;;;40.17;23.48;;;;;;;;;;4886443;29;20035;-89
2022/04/23 20:20:37;;;;;;;39.60;24.35;;;;;;;;;;4886596;29;20546;-93
2022/04/23 20:23:05;;;;;;;39.22;24.58;;;;;;;;;;4886203;29;20478;-90
2022/04/23 20:25:31;;;;;;;40.25;25.30;;;;;;;;;;4886211;29;20049;-93
2022/04/23 20:27:58;;;;;;;38.55;21.95;;;;;;;;;;4885862;29;20043;-93
2022/04/23 20:30:25;;;;;;;43.92;23.23;;;;;;;;;;4886949;29;20092;-92
2022/04/23 20:32:51;;;;;;;38.08;23.42;;;;;;;;;;4887283;29;20044;-94
2022/04/23 20:38:06;;;;;;;47.60;27.00;;;;;;;;;;4902634;29;20071;-94
2022/04/23 20:40:33;;;;;;;51.13;27.70;;;;;;;;;;4885604;29;20051;-89
2022/04/23 20:43:02;;;;;;;39.90;24.75;;;;;;;;;;4885879;29;20036;-94
2022/04/23 20:45:30;;;;;;;40.35;24.55;;;;;;;;;;4885222;29;20028;-94
2022/04/23 20:47:56;;;;;;;45.65;26.05;;;;;;;;;;4888681;29;20044;-92
2022/04/23 20:50:23;;;;;;;49.42;27.65;;;;;;;;;;4888036;29;20025;-90
2022/04/23 20:55:51;;;;;;;47.75;26.60;;;;;;;;;;4902443;29;20481;-92
2022/04/23 20:58:18;;;;;;;41.42;25.90;;;;;;;;;;4885663;29;20041;-94
2022/04/23 21:00:45;;;;;;;47.05;26.63;;;;;;;;;;4885884;29;20470;-89
2022/04/23 21:03:13;;;;;;;45.97;28.80;;;;;;;;;;4885648;29;20482;-90
2022/04/23 21:05:39;;;;;;;48.72;26.83;;;;;;;;;;4885983;29;20547;-93
2022/04/23 21:08:08;;;;;;;45.85;27.35;;;;;;;;;;4886557;29;20116;-90
2022/04/23 21:10:35;;;;;;;41.45;25.27;;;;;;;;;;4885684;29;20051;-90
2022/04/23 21:13:01;;;;;;;44.22;27.02;;;;;;;;;;4885625;29;20029;-92
2022/04/23 21:15:28;;;;;;;38.65;24.08;;;;;;;;;;4884591;29;20402;-93
2022/04/23 21:17:55;;;;;;;38.55;24.55;;;;;;;;;;4886219;29;20029;-92
2022/04/23 21:20:22;;;;;;;41.40;25.58;;;;;;;;;;4885487;29;20029;-91
2022/04/23 21:22:48;;;;;;;40.35;24.65;;;;;;;;;;4885092;29;20032;-94
2022/04/23 21:25:15;;;;;;;40.15;24.45;;;;;;;;;;4884586;29;20032;-90
2022/04/23 21:27:41;;;;;;;37.53;24.15;;;;;;;;;;4884812;29;20036;-92
2022/04/23 21:30:08;;;;;;;38.38;23.33;;;;;;;;;;4885231;29;20116;-92
2022/04/23 21:32:34;;;;;;;37.03;22.65;;;;;;;;;;4884955;29;20036;-88
2022/04/23 21:35:00;;;;;;;38.10;21.67;;;;;;;;;;4884888;29;20052;-91
2022/04/23 21:37:26;;;;;;;33.08;20.65;;;;;;;;;;4884893;29;20028;-92
2022/04/23 21:39:52;;;;;;;35.47;19.92;;;;;;;;;;4884783;29;20497;-94
2022/04/23 21:45:03;;;;;;;34.22;21.10;;;;;;;;;;4901714;29;20069;-89
2022/04/23 21:47:30;;;;;;;34.05;22.00;;;;;;;;;;4883979;29;20037;-88
2022/04/23 21:50:00;;;;;;;40.53;22.90;;;;;;;;;;4901424;29;20092;-94
2022/04/23 21:52:26;;;;;;;35.83;21.80;;;;;;;;;;4885513;29;20029;-88
2022/04/23 21:54:57;;;;;;;44.42;24.52;;;;;;;;;;4884848;29;20032;-89
2022/04/23 21:57:24;;;;;;;38.38;22.98;;;;;;;;;;4885957;29;20045;-90
2022/04/23 21:59:51;;;;;;;44.00;24.35;;;;;;;;;;4901085;29;20052;-94
2022/04/23 22:02:17;;;;;;;35.00;21.70;;;;;;;;;;4884652;29;20055;-93
2022/04/23 22:04:43;;;;;;;30.75;19.45;;;;;;;;;;4884655;29;20052;-94
2022/04/23 22:07:16;;;;;;;32.42;19.55;;;;;;;;;;4883928;29;20103;-89
2022/04/23 22:09:43;;;;;;;30.60;18.98;;;;;;;;;;4884130;29;20037;-90
2022/04/23 22:12:11;;;;;;;27.77;17.85;;;;;;;;;;4900332;29;20035;-89
2022/04/23 22:14:38;;;;;;;27.50;17.50;;;;;;;;;;4884008;29;20071;-90
2022/04/23 22:17:05;;;;;;;31.20;17.63;;;;;;;;;;4883721;29;20390;-89
2022/04/23 22:19:31;;;;;;;27.63;16.95;;;;;;;;;;4884081;29;20036;-89
2022/04/23 22:21:57;;;;;;;28.17;16.55;;;;;;;;;;4884002;29;20029;-90
2022/04/23 22:24:24;;;;;;;30.63;17.98;;;;;;;;;;4883712;29;20064;-91
2022/04/23 22:26:50;;;;;;;29.60;17.10;;;;;;;;;;4883634;29;20461;-90
2022/04/23 22:29:20;;;;;;;28.38;16.38;;;;;;;;;;4884071;29;20040;-89
2022/04/23 22:31:47;;;;;;;24.15;15.20;;;;;;;;;;4883604;29;20111;-91
2022/04/23 22:34:13;;;;;;;30.30;16.88;;;;;;;;;;4884431;29;20029;-93
2022/04/23 22:36:40;;;;;;;28.38;16.80;;;;;;;;;;4883718;29;20039;-92
2022/04/23 22:39:06;;;;;;;31.05;17.77;;;;;;;;;;4884479;29;20116;-92
2022/04/23 22:41:33;;;;;;;26.85;16.10;;;;;;;;;;4883256;29;20035;-89
2022/04/23 22:43:59;;;;;;;26.50;16.48;;;;;;;;;;4883624;29;20056;-90
2022/04/23 22:46:25;;;;;;;24.80;15.68;;;;;;;;;;4883064;29;20025;-92
2022/04/23 22:48:52;;;;;;;30.50;16.70;;;;;;;;;;4883824;29;20049;-89
2022/04/23 22:51:18;;;;;;;25.35;15.95;;;;;;;;;;4884126;29;20068;-90
2022/04/23 22:53:44;;;;;;;29.40;16.48;;;;;;;;;;4883079;29;20034;-88
2022/04/23 22:56:10;;;;;;;27.48;15.20;;;;;;;;;;4885052;29;20037;-89
2022/04/23 22:58:36;;;;;;;22.77;14.93;;;;;;;;;;4884347;29;20032;-88
2022/04/23 23:01:03;;;;;;;25.45;15.15;;;;;;;;;;4885148;29;20036;-88
2022/04/23 23:03:29;;;;;;;23.17;14.65;;;;;;;;;;4883894;29;20039;-89
2022/04/23 23:05:55;;;;;;;27.00;16.35;;;;;;;;;;4883770;29;20028;-92
2022/04/23 23:08:21;;;;;;;29.13;16.55;;;;;;;;;;4884445;29;20052;-90
2022/04/23 23:10:47;;;;;;;26.05;15.70;;;;;;;;;;4895795;29;20032;-89
2022/04/23 23:13:14;;;;;;;25.95;15.20;;;;;;;;;;4892948;29;20033;-92
2022/04/23 23:15:43;;;;;;;27.85;16.30;;;;;;;;;;4900797;29;20053;-93
2022/04/23 23:18:09;;;;;;;27.05;15.40;;;;;;;;;;4883384;29;20486;-92
2022/04/23 23:20:36;;;;;;;24.67;15.98;;;;;;;;;;4900998;29;20029;-93
2022/04/23 23:23:02;;;;;;;27.50;16.85;;;;;;;;;;4883222;29;20132;-90
2022/04/23 23:25:34;;;;;;;30.75;17.13;;;;;;;;;;4883098;29;20415;-92
2022/04/23 23:28:00;;;;;;;28.17;16.48;;;;;;;;;;4882995;29;20033;-93
2022/04/23 23:30:27;;;;;;;28.02;16.08;;;;;;;;;;4883002;29;20035;-92
2022/04/23 23:32:53;;;;;;;26.58;16.17;;;;;;;;;;4883130;29;20029;-90
2022/04/23 23:35:19;;;;;;;26.88;15.55;;;;;;;;;;4882697;29;20032;-90
2022/04/23 23:37:46;;;;;;;24.35;15.38;;;;;;;;;;4884055;29;20430;-89